createdAt,value
2023-05-08T04:00:39.973Z,14.90
2023-05-08T04:03:20.056Z,14.90
2023-05-08T04:05:55.492Z,14.90
2023-05-08T04:08:28.341Z,14.80
2023-05-08T04:11:06.122Z,14.80
2023-05-08T04:13:42.729Z,14.80
2023-05-08T04:16:21.660Z,14.80
2023-05-08T04:18:58.218Z,14.80
2023-05-08T04:21:29.961Z,14.80
2023-05-08T04:24:01.603Z,14.80
2023-05-08T04:26:33.246Z,14.80
2023-05-08T04:29:05.214Z,14.80
2023-05-08T04:31:36.849Z,14.80
2023-05-08T04:34:09.895Z,14.80
2023-05-08T04:36:41.533Z,14.80
2023-05-08T04:39:13.217Z,14.80
2023-05-08T04:41:44.911Z,14.80
2023-05-08T04:44:16.660Z,14.80
2023-05-08T04:46:48.295Z,14.80
2023-05-08T04:49:21.511Z,14.80
2023-05-08T04:51:53.154Z,14.80
2023-05-08T04:54:24.824Z,14.80
2023-05-08T04:56:56.806Z,14.80
2023-05-08T04:59:28.440Z,14.80
2023-05-08T05:02:00.182Z,14.90
2023-05-08T05:04:33.346Z,14.90
2023-05-08T05:07:04.986Z,15.00
2023-05-08T05:09:36.637Z,15.00
2023-05-08T05:12:08.333Z,15.00
2023-05-08T05:14:39.974Z,15.10
2023-05-08T05:17:11.638Z,15.10
2023-05-08T05:19:44.617Z,15.20
2023-05-08T05:22:16.295Z,15.20
2023-05-08T05:24:48.052Z,15.20
2023-05-08T05:27:21.378Z,15.30
2023-05-08T05:29:53.124Z,15.40
2023-05-08T05:32:24.828Z,15.40
2023-05-08T05:34:57.856Z,15.50
2023-05-08T05:37:29.495Z,15.50
2023-05-08T05:40:01.282Z,15.60
2023-05-08T05:42:32.927Z,15.70
2023-05-08T05:45:05.505Z,16.10
2023-05-08T05:47:37.190Z,16.30
2023-05-08T05:50:10.994Z,16.40
2023-05-08T05:52:42.717Z,16.40
2023-05-08T05:55:14.596Z,16.40
2023-05-08T05:57:46.382Z,16.40
2023-05-08T06:00:18.803Z,16.40
2023-05-08T06:02:50.559Z,16.40
2023-05-08T06:05:23.712Z,16.40
2023-05-08T06:07:55.375Z,16.40
2023-05-08T06:10:27.117Z,16.40
2023-05-08T06:12:58.811Z,16.50
2023-05-08T06:15:30.561Z,16.50
2023-05-08T06:18:02.313Z,16.50
2023-05-08T06:20:36.682Z,16.50
2023-05-08T06:23:08.337Z,16.60
2023-05-08T06:25:40.014Z,16.60
2023-05-08T06:28:11.664Z,16.60
2023-05-08T06:30:43.365Z,16.60
2023-05-08T06:33:15.098Z,16.60
2023-05-08T06:35:48.194Z,16.60
2023-05-08T06:38:20.043Z,16.60
2023-05-08T06:40:51.827Z,16.70
2023-05-08T06:43:23.608Z,16.70
2023-05-08T06:45:55.296Z,16.80
2023-05-08T06:48:26.982Z,17.00
2023-05-08T06:50:59.997Z,17.10
2023-05-08T06:53:31.821Z,17.20
2023-05-08T06:56:03.582Z,17.50
2023-05-08T06:58:35.272Z,17.80
2023-05-08T07:01:06.935Z,17.90
2023-05-08T07:03:38.585Z,17.90
2023-05-08T07:06:11.559Z,17.80
2023-05-08T07:08:43.211Z,17.70
2023-05-08T07:11:14.878Z,17.60
2023-05-08T07:13:46.519Z,17.50
2023-05-08T07:16:18.188Z,17.30
2023-05-08T07:18:49.914Z,17.20
2023-05-08T07:21:22.957Z,17.20
2023-05-08T07:23:54.641Z,17.30
2023-05-08T07:26:26.632Z,17.50
2023-05-08T07:28:58.292Z,17.70
2023-05-08T07:31:29.991Z,17.90
2023-05-08T07:34:01.678Z,18.00
2023-05-08T07:36:34.683Z,18.10
2023-05-08T07:39:06.333Z,18.20
2023-05-08T07:41:38.017Z,18.40
2023-05-08T07:44:09.778Z,18.60
2023-05-08T07:46:41.459Z,18.70
2023-05-08T07:49:13.131Z,19.00
2023-05-08T07:51:46.127Z,19.20
2023-05-08T07:54:17.778Z,19.50
2023-05-08T07:56:49.445Z,19.80
2023-05-08T07:59:21.097Z,20.30
2023-05-08T08:01:52.828Z,21.10
2023-05-08T08:04:24.981Z,22.00
2023-05-08T08:06:58.041Z,22.50
2023-05-08T08:09:29.738Z,22.70
2023-05-08T08:12:01.538Z,22.80
2023-05-08T08:14:33.233Z,22.70
2023-05-08T08:17:04.875Z,22.60
2023-05-08T08:19:36.559Z,22.70
2023-05-08T08:22:09.563Z,23.00
2023-05-08T08:24:41.211Z,23.20
2023-05-08T08:27:12.850Z,23.50
2023-05-08T08:29:44.639Z,24.10
2023-05-08T08:32:16.300Z,24.40
2023-05-08T08:34:47.963Z,24.90
2023-05-08T08:37:21.020Z,24.90
2023-05-08T08:39:53.522Z,24.90
2023-05-08T08:42:25.183Z,24.50
2023-05-08T08:44:56.836Z,24.00
2023-05-08T08:47:29.001Z,23.40
2023-05-08T08:50:02.684Z,22.60
2023-05-08T08:52:39.860Z,21.90
2023-05-08T08:55:12.673Z,21.00
2023-05-08T08:57:49.756Z,20.30
2023-05-08T09:00:22.198Z,20.10
2023-05-08T09:02:54.445Z,19.80
2023-05-08T09:05:26.595Z,19.80
2023-05-08T09:07:59.751Z,19.70
2023-05-08T09:10:31.441Z,19.80
2023-05-08T09:13:03.497Z,19.80
2023-05-08T09:15:35.235Z,19.70
2023-05-08T09:18:06.946Z,19.70
2023-05-08T09:20:40.325Z,19.70
2023-05-08T09:23:14.309Z,19.70
2023-05-08T09:25:47.132Z,19.70
2023-05-08T09:28:20.206Z,19.80
2023-05-08T09:30:52.517Z,19.70
2023-05-08T09:33:24.967Z,19.70
2023-05-08T09:35:57.056Z,19.70
2023-05-08T09:38:37.281Z,19.60
2023-05-08T09:41:09.861Z,19.70
2023-05-08T09:43:41.953Z,19.60
2023-05-08T09:46:24.225Z,19.50
2023-05-08T09:48:57.434Z,19.60
2023-05-08T09:51:29.881Z,19.60
2023-05-08T09:54:03.309Z,19.50
2023-05-08T09:56:35.789Z,19.40
2023-05-08T09:59:22.349Z,19.30
2023-05-08T10:01:54.261Z,19.30
2023-05-08T10:04:32.192Z,19.30
2023-05-08T10:07:03.896Z,19.00
2023-05-08T10:09:49.886Z,18.90
2023-05-08T10:12:22.186Z,18.90
2023-05-08T10:14:53.879Z,19.00
2023-05-08T10:17:27.408Z,18.90
2023-05-08T10:19:59.845Z,18.90
2023-05-08T10:22:31.585Z,18.80
2023-05-08T10:25:07.387Z,18.90
2023-05-08T10:27:41.163Z,18.80
2023-05-08T10:30:13.970Z,18.80
2023-05-08T10:32:45.854Z,18.80
2023-05-08T10:35:17.563Z,18.70
2023-05-08T10:37:49.370Z,18.70
2023-05-08T10:40:22.464Z,18.70
2023-05-08T10:42:54.116Z,18.50
2023-05-08T10:45:25.888Z,18.30
2023-05-08T10:47:59.505Z,18.20
2023-05-08T10:50:42.607Z,18.30
2023-05-08T10:53:17.594Z,18.40
2023-05-08T10:55:51.650Z,18.30
2023-05-08T10:58:29.604Z,18.40
2023-05-08T11:01:16.672Z,18.60
2023-05-08T11:03:48.772Z,18.60
2023-05-08T11:06:45.100Z,18.70
2023-05-08T11:09:22.909Z,18.70
2023-05-08T11:12:07.381Z,18.70
2023-05-08T11:14:41.369Z,18.50
2023-05-08T11:17:13.080Z,18.80
2023-05-08T11:19:55.284Z,18.60
2023-05-08T11:22:28.308Z,18.30
2023-05-08T11:25:04.584Z,18.60
2023-05-08T11:27:53.364Z,18.80
2023-05-08T11:30:26.755Z,18.90
2023-05-08T11:33:14.203Z,18.60
2023-05-08T11:35:53.868Z,18.40
2023-05-08T11:38:29.079Z,18.80
2023-05-08T11:41:01.950Z,18.10
2023-05-08T11:44:09.529Z,17.90
2023-05-08T11:46:42.987Z,18.80
2023-05-08T11:49:15.063Z,18.60
2023-05-08T11:51:48.051Z,18.90
2023-05-08T11:54:19.771Z,18.30
2023-05-08T11:56:51.940Z,19.50
2023-05-08T11:59:24.963Z,19.90
2023-05-08T12:02:07.844Z,20.20
2023-05-08T12:04:44.500Z,20.50
2023-05-08T12:07:16.305Z,20.30
2023-05-08T12:09:47.964Z,20.10
2023-05-08T12:12:19.589Z,19.70
2023-05-08T12:14:52.646Z,19.30
2023-05-08T12:17:24.405Z,19.40
2023-05-08T12:19:56.124Z,19.60
2023-05-08T12:22:27.792Z,19.20
2023-05-08T12:24:59.451Z,19.60
2023-05-08T12:27:31.161Z,19.60
2023-05-08T12:30:07.747Z,19.70
2023-05-08T12:32:40.550Z,19.30
2023-05-08T12:35:12.610Z,19.10
2023-05-08T12:37:45.067Z,18.80
2023-05-08T12:40:25.141Z,18.50
2023-05-08T12:42:56.868Z,18.40
2023-05-08T12:45:31.012Z,18.20
2023-05-08T12:48:03.730Z,18.10
2023-05-08T12:50:35.795Z,17.90
2023-05-08T12:53:08.369Z,18.00
2023-05-08T12:55:40.741Z,18.00
2023-05-08T12:58:15.215Z,18.00
2023-05-08T13:00:49.491Z,18.00
2023-05-08T13:03:26.484Z,17.90
2023-05-08T13:05:58.550Z,18.00
2023-05-08T13:08:30.636Z,18.00
2023-05-08T13:11:03.305Z,18.10
2023-05-08T13:13:35.801Z,18.20
2023-05-08T13:16:09.941Z,18.30
2023-05-08T13:18:41.639Z,18.30
2023-05-08T13:21:13.313Z,19.00
2023-05-08T13:23:45.007Z,18.30
2023-05-08T13:26:16.655Z,18.20
2023-05-08T13:28:48.354Z,18.20
2023-05-08T13:31:21.472Z,18.00
2023-05-08T13:33:53.195Z,18.00
2023-05-08T13:36:24.907Z,17.90
2023-05-08T13:38:56.575Z,17.80
2023-05-08T13:41:28.280Z,17.80
2023-05-08T13:43:59.978Z,17.80
2023-05-08T13:46:33.127Z,17.90
2023-05-08T13:49:04.856Z,17.90
2023-05-08T13:51:36.526Z,17.90
2023-05-08T13:54:08.189Z,17.90
2023-05-08T13:56:39.862Z,18.10
2023-05-08T13:59:11.527Z,18.10
2023-05-08T14:01:44.627Z,18.40
2023-05-08T14:04:16.331Z,18.50
2023-05-08T14:06:48.022Z,18.50
2023-05-08T14:09:19.673Z,18.50
2023-05-08T14:11:51.363Z,18.60
2023-05-08T14:14:23.059Z,18.70
2023-05-08T14:16:56.113Z,18.80
2023-05-08T14:19:27.830Z,19.10
2023-05-08T14:21:59.533Z,19.30
2023-05-08T14:24:31.226Z,19.40
2023-05-08T14:27:02.969Z,19.60
2023-05-08T14:29:34.644Z,19.90
2023-05-08T14:32:07.650Z,20.00
2023-05-08T14:34:39.398Z,20.00
2023-05-08T14:37:11.047Z,20.10
2023-05-08T14:39:42.725Z,20.20
2023-05-08T14:42:22.815Z,20.40
2023-05-08T14:44:55.483Z,20.50
2023-05-08T14:47:28.677Z,20.70
2023-05-08T14:50:00.379Z,20.90
2023-05-08T14:52:32.039Z,20.90
2023-05-08T14:55:04.304Z,20.70
2023-05-08T14:57:36.069Z,20.40
2023-05-08T15:00:09.106Z,20.30
2023-05-08T15:02:42.229Z,20.40
2023-05-08T15:08:05.798Z,20.50
2023-05-08T15:10:37.456Z,20.70
2023-05-08T15:13:09.173Z,20.80
2023-05-08T15:15:40.925Z,20.90
2023-05-08T15:18:13.952Z,20.90
2023-05-08T15:20:45.621Z,20.90
2023-05-08T15:23:17.281Z,20.70
2023-05-08T15:25:49.031Z,20.80
2023-05-08T15:28:21.026Z,20.60
2023-05-08T15:30:52.787Z,20.70
2023-05-08T15:33:25.789Z,20.60
2023-05-08T15:35:57.468Z,20.40
2023-05-08T15:38:29.155Z,20.50
2023-05-08T15:41:00.830Z,20.40
2023-05-08T15:43:32.555Z,20.40
2023-05-08T15:46:04.388Z,20.20
2023-05-08T15:48:37.445Z,20.20
2023-05-08T15:51:09.134Z,20.20
2023-05-08T15:53:40.814Z,20.10
2023-05-08T15:56:12.506Z,20.00
2023-05-08T15:58:44.180Z,20.10
2023-05-08T16:01:15.873Z,20.00
2023-05-08T16:03:48.964Z,19.90
2023-05-08T16:06:20.640Z,19.80
2023-05-08T16:08:52.388Z,19.80
2023-05-08T16:11:24.044Z,19.80
2023-05-08T16:13:55.700Z,19.80
2023-05-08T16:16:27.453Z,19.90
2023-05-08T16:19:00.526Z,20.00
2023-05-08T16:24:06.992Z,20.10
2023-05-08T16:26:38.653Z,20.10
2023-05-08T16:29:10.319Z,20.10
2023-05-08T16:31:41.997Z,20.10
2023-05-08T16:34:15.024Z,20.10
2023-05-08T16:41:50.736Z,20.20
2023-05-08T16:44:22.397Z,20.10
2023-05-08T16:46:54.153Z,20.20
2023-05-08T16:49:27.192Z,20.10
2023-05-08T16:51:58.851Z,20.20
2023-05-08T16:54:30.500Z,20.10
2023-05-08T16:57:02.150Z,20.20
2023-05-08T16:59:33.824Z,20.10
2023-05-08T17:02:05.579Z,20.10
2023-05-08T17:07:10.700Z,21.00
2023-05-08T17:24:56.029Z,20.10
2023-05-08T17:32:32.833Z,20.00
2023-05-08T17:35:06.846Z,19.80
2023-05-08T17:37:38.520Z,19.80
2023-05-08T17:40:11.019Z,19.70
2023-05-08T17:42:42.829Z,19.60
2023-05-08T17:45:14.483Z,19.60
2023-05-08T17:47:46.180Z,19.50
2023-05-08T17:50:19.221Z,19.50
2023-05-08T17:52:50.902Z,19.40
2023-05-08T17:55:22.763Z,19.40
2023-05-08T17:57:54.433Z,19.30
2023-05-08T18:00:26.280Z,19.30
2023-05-08T18:02:57.981Z,19.30
2023-05-08T18:05:31.055Z,19.20
2023-05-08T18:08:02.718Z,19.20
2023-05-08T18:10:35.026Z,19.20
2023-05-08T18:13:06.777Z,19.10
2023-05-08T18:15:39.951Z,19.10
2023-05-08T18:18:11.688Z,19.10
2023-05-08T18:20:44.679Z,19.00
2023-05-08T18:23:16.313Z,19.00
2023-05-08T18:25:47.980Z,19.00
2023-05-08T18:28:19.665Z,18.90
2023-05-08T18:30:51.312Z,18.90
2023-05-08T18:33:22.968Z,18.80
2023-05-08T18:35:55.962Z,18.80
2023-05-08T18:38:27.605Z,18.70
2023-05-08T18:41:01.494Z,18.70
2023-05-08T18:43:33.169Z,18.60
2023-05-08T18:46:08.604Z,18.60
2023-05-08T18:48:40.347Z,18.50
2023-05-08T18:51:13.351Z,18.10
2023-05-08T18:53:45.033Z,18.40
2023-05-08T18:56:16.673Z,18.40
2023-05-08T18:58:48.326Z,18.40
2023-05-08T19:01:20.213Z,18.30
2023-05-08T19:03:52.015Z,18.20
2023-05-08T19:06:25.123Z,18.20
2023-05-08T19:08:56.751Z,18.10
2023-05-08T19:11:28.401Z,18.10
2023-05-08T19:14:00.076Z,18.10
2023-05-08T19:16:31.861Z,18.00
2023-05-08T19:19:03.547Z,18.00
2023-05-08T19:21:36.550Z,17.90
2023-05-08T19:24:08.569Z,17.90
2023-05-08T19:26:40.235Z,17.80
2023-05-08T19:29:11.897Z,17.90
2023-05-08T19:31:43.598Z,17.80
2023-05-08T19:34:15.329Z,17.80
2023-05-08T19:36:48.322Z,17.70
2023-05-08T19:39:19.985Z,17.70
2023-05-08T19:41:51.626Z,17.60
2023-05-08T19:44:23.299Z,17.70
2023-05-08T19:46:54.940Z,17.60
2023-05-08T19:49:26.604Z,17.60
2023-05-08T19:51:59.619Z,17.50
2023-05-08T19:54:31.284Z,17.50
2023-05-08T19:57:02.979Z,17.50
2023-05-08T19:59:34.626Z,17.40
2023-05-08T20:02:06.331Z,17.40
2023-05-08T20:04:54.437Z,17.30
2023-05-08T20:07:30.974Z,17.30
2023-05-08T20:10:02.612Z,17.30
2023-05-08T20:12:34.263Z,17.20
2023-05-08T20:15:06.825Z,17.20
2023-05-08T20:17:38.507Z,17.20
2023-05-08T20:20:11.659Z,17.20
2023-05-08T20:22:44.882Z,17.10
2023-05-08T20:25:16.573Z,17.10
2023-05-08T20:27:48.231Z,17.10
2023-05-08T20:30:21.479Z,17.10
2023-05-08T20:32:54.461Z,17.10
2023-05-08T20:35:26.190Z,17.10
2023-05-08T20:37:59.172Z,17.10
2023-05-08T20:40:30.867Z,17.10
2023-05-08T20:43:02.555Z,17.00
2023-05-08T20:45:34.296Z,17.00
2023-05-08T20:48:06.048Z,17.00
2023-05-08T20:50:37.756Z,17.00
2023-05-08T20:53:10.789Z,17.00
2023-05-08T20:55:42.472Z,17.00
2023-05-08T20:58:14.132Z,17.00
2023-05-08T21:00:45.790Z,16.90
2023-05-08T21:03:17.479Z,16.90
2023-05-08T21:05:49.140Z,16.90
2023-05-08T21:08:22.981Z,16.90
2023-05-08T21:10:54.619Z,16.80
2023-05-08T21:13:26.340Z,16.80
2023-05-08T21:15:58.061Z,16.80
2023-05-08T21:18:29.794Z,16.80
2023-05-08T21:21:01.445Z,16.80
2023-05-08T21:23:34.464Z,16.70
2023-05-08T21:26:06.147Z,16.70
2023-05-08T21:28:37.787Z,16.70
2023-05-08T21:31:09.507Z,16.70
2023-05-08T21:33:41.187Z,16.60
2023-05-08T21:36:12.874Z,16.60
2023-05-08T21:38:45.876Z,16.60
2023-05-08T21:41:17.534Z,16.60
2023-05-08T21:43:49.191Z,16.60
2023-05-08T21:46:20.895Z,16.50
2023-05-08T21:48:52.609Z,16.50
2023-05-08T21:51:24.280Z,16.50
2023-05-08T21:53:57.312Z,16.50
2023-05-08T21:56:28.962Z,16.40
2023-05-08T21:59:00.642Z,16.40
